Portada
METAR-TAF:

METAR-TAF

Aeropuertos :

Millington-Memphis Airport

Millington, Tennessee, Estados Unidos

latitud: 35-21-24N, longitud: 089-52-13W, altitud: 98 m

Observación

El informe se hizo hace 54 minutos, a las 21:50 UTC
Viento 11 kt del oeste con ráfagas de 20 kt
Temperatura 6°C
Humedad 70%
Presión 1015 hPa
Visibilidad: 16.1 km
Nubes dispersas a una altura de 3100 ft
Cielo cubierto a una altura de 4100 ft

METAR: KNQA 242150Z 26011G20KT 10SM SCT031 OVC041 06/01 A2997

Hora: 16:44 (22:44 UTC)


TAF: falta

Observaciones y pronósticos meteorológicos de más de 4000 aeropuertos (mensajes METAR y TAF).

Los puntos amarillos y rojos representan las estaciones disponibles.

Ponga el ratón en el punto deseado para ver el nombre de la estación.

Haga clic para ver las observaciones y los pronósticos meteorológicos.

Para cambiar el mapa : haga clic en los botones verdes con una cruz de color negro para hacer un zoom, en el botón verde con un guión para alejar o en las flechas verdes para mapas adyacentes.


METAR-TAF: